Terminal Aerodrome Forecast
Issued by NWS Jackson, MS

Home | Current Version | Previous Version | Text Only | Print | Product List | Glossary On
Versions: 1 2 3 4 5 6 7 8 9 10 11 12 13
000
FTUS44 KJAN 241120
TAFGLH
TAF
KGLH 241120Z 2412/2512 15009KT P6SM SCT100 BKN250
     FM241400 15013KT P6SM BKN025
     FM241600 17019G25KT P6SM BKN035
     FM241800 17022G29KT P6SM VCTS SCT040CB BKN100
     FM242200 16020G26KT 1SM +TSRA BR OVC030CB
     FM250000 16020G30KT 3SM -RA BR VCTS OVC035CB
     FM250200 15022G30KT 5SM -RA BR OVC050=

USA.gov is the U.S. government's official web portal to all federal, state and local government web resources and services.